sensor_id;sensor_type;location;lat;lon;timestamp;temperature;humidity
33811;DHT22;20119;48.334;16.206;2023-07-31T02:10:16;16.00;99.90
33811;DHT22;20119;48.334;16.206;2023-07-31T02:18:02;15.90;99.90
33811;DHT22;20119;48.334;16.206;2023-07-31T02:42:10;15.70;99.90
33811;DHT22;20119;48.334;16.206;2023-07-31T02:44:52;15.70;99.90
33811;DHT22;20119;48.334;16.206;2023-07-31T03:13:30;15.30;99.90
33811;DHT22;20119;48.334;16.206;2023-07-31T03:16:00;15.20;99.90
33811;DHT22;20119;48.334;16.206;2023-07-31T03:18:31;15.20;99.90
33811;DHT22;20119;48.334;16.206;2023-07-31T03:21:05;15.20;99.90
33811;DHT22;20119;48.334;16.206;2023-07-31T03:23:36;15.20;99.90
33811;DHT22;20119;48.334;16.206;2023-07-31T03:26:11;15.10;99.90
33811;DHT22;20119;48.334;16.206;2023-07-31T04:07:58;15.50;99.90
33811;DHT22;20119;48.334;16.206;2023-07-31T04:26:03;15.70;99.90
33811;DHT22;20119;48.334;16.206;2023-07-31T04:28:38;15.80;99.90
33811;DHT22;20119;48.334;16.206;2023-07-31T05:46:58;20.00;99.90
33811;DHT22;20119;48.334;16.206;2023-07-31T05:49:25;20.40;99.90
33811;DHT22;20119;48.334;16.206;2023-07-31T05:51:52;20.70;99.90
33811;DHT22;20119;48.334;16.206;2023-07-31T06:36:05;22.50;99.90
33811;DHT22;20119;48.334;16.206;2023-07-31T06:38:33;23.10;99.90
33811;DHT22;20119;48.334;16.206;2023-07-31T06:41:00;23.40;99.90
33811;DHT22;20119;48.334;16.206;2023-07-31T06:43:27;24.20;99.90
33811;DHT22;20119;48.334;16.206;2023-07-31T06:45:54;24.20;99.90
33811;DHT22;20119;48.334;16.206;2023-07-31T06:48:21;24.50;99.90
33811;DHT22;20119;48.334;16.206;2023-07-31T06:50:48;24.30;99.90
33811;DHT22;20119;48.334;16.206;2023-07-31T06:53:17;24.00;99.90
33811;DHT22;20119;48.334;16.206;2023-07-31T06:55:46;23.60;99.90
33811;DHT22;20119;48.334;16.206;2023-07-31T06:58:14;23.50;99.90
33811;DHT22;20119;48.334;16.206;2023-07-31T07:00:41;23.80;99.90
33811;DHT22;20119;48.334;16.206;2023-07-31T07:08:32;24.40;99.90
33811;DHT22;20119;48.334;16.206;2023-07-31T07:10:59;24.50;99.90
33811;DHT22;20119;48.334;16.206;2023-07-31T07:13:26;25.40;99.90
33811;DHT22;20119;48.334;16.206;2023-07-31T07:15:53;25.00;99.90
33811;DHT22;20119;48.334;16.206;2023-07-31T07:18:22;24.50;99.90
33811;DHT22;20119;48.334;16.206;2023-07-31T07:23:44;24.00;99.90
33811;DHT22;20119;48.334;16.206;2023-07-31T07:26:11;24.70;99.90
33811;DHT22;20119;48.334;16.206;2023-07-31T07:28:39;24.90;99.90
33811;DHT22;20119;48.334;16.206;2023-07-31T07:31:06;25.90;99.90
33811;DHT22;20119;48.334;16.206;2023-07-31T07:33:33;25.50;99.90
33811;DHT22;20119;48.334;16.206;2023-07-31T07:36:00;25.60;99.90
33811;DHT22;20119;48.334;16.206;2023-07-31T07:38:28;26.40;99.90
33811;DHT22;20119;48.334;16.206;2023-07-31T07:40:56;25.70;99.90
33811;DHT22;20119;48.334;16.206;2023-07-31T07:43:23;25.90;99.90
33811;DHT22;20119;48.334;16.206;2023-07-31T07:45:50;27.20;99.90
33811;DHT22;20119;48.334;16.206;2023-07-31T07:48:17;27.00;99.90
33811;DHT22;20119;48.334;16.206;2023-07-31T07:50:44;27.30;99.90
33811;DHT22;20119;48.334;16.206;2023-07-31T07:53:11;26.90;99.90
33811;DHT22;20119;48.334;16.206;2023-07-31T07:55:39;26.60;99.90
33811;DHT22;20119;48.334;16.206;2023-07-31T07:58:08;26.70;99.90
33811;DHT22;20119;48.334;16.206;2023-07-31T08:00:35;27.10;99.90
33811;DHT22;20119;48.334;16.206;2023-07-31T08:03:02;27.80;99.90
33811;DHT22;20119;48.334;16.206;2023-07-31T08:05:29;28.10;99.90
33811;DHT22;20119;48.334;16.206;2023-07-31T08:07:59;27.80;99.90
33811;DHT22;20119;48.334;16.206;2023-07-31T08:10:26;28.40;99.90
33811;DHT22;20119;48.334;16.206;2023-07-31T08:12:53;28.30;99.90
33811;DHT22;20119;48.334;16.206;2023-07-31T08:15:21;29.20;99.90
33811;DHT22;20119;48.334;16.206;2023-07-31T08:17:48;29.10;99.90
33811;DHT22;20119;48.334;16.206;2023-07-31T08:20:15;29.00;99.00
33811;DHT22;20119;48.334;16.206;2023-07-31T08:22:42;28.60;99.90
33811;DHT22;20119;48.334;16.206;2023-07-31T08:25:09;29.30;99.80
33811;DHT22;20119;48.334;16.206;2023-07-31T08:27:36;29.90;99.40
33811;DHT22;20119;48.334;16.206;2023-07-31T08:30:04;28.80;98.30
33811;DHT22;20119;48.334;16.206;2023-07-31T08:32:32;29.40;98.80
33811;DHT22;20119;48.334;16.206;2023-07-31T08:34:59;29.70;99.90
33811;DHT22;20119;48.334;16.206;2023-07-31T08:37:26;30.00;97.60
33811;DHT22;20119;48.334;16.206;2023-07-31T08:39:53;29.40;97.20
33811;DHT22;20119;48.334;16.206;2023-07-31T08:42:20;30.50;97.10
33811;DHT22;20119;48.334;16.206;2023-07-31T08:44:47;30.10;96.80
33811;DHT22;20119;48.334;16.206;2023-07-31T08:47:16;30.10;95.80
33811;DHT22;20119;48.334;16.206;2023-07-31T08:49:46;30.00;94.70
33811;DHT22;20119;48.334;16.206;2023-07-31T08:52:13;29.30;95.80
33811;DHT22;20119;48.334;16.206;2023-07-31T08:54:41;29.30;96.10
33811;DHT22;20119;48.334;16.206;2023-07-31T08:57:10;28.90;94.80
33811;DHT22;20119;48.334;16.206;2023-07-31T08:59:38;28.80;94.70
33811;DHT22;20119;48.334;16.206;2023-07-31T09:02:07;28.40;95.70
33811;DHT22;20119;48.334;16.206;2023-07-31T09:04:35;27.80;95.70
33811;DHT22;20119;48.334;16.206;2023-07-31T09:07:04;28.20;95.90
33811;DHT22;20119;48.334;16.206;2023-07-31T09:09:32;28.30;95.40
33811;DHT22;20119;48.334;16.206;2023-07-31T09:11:59;28.70;95.40
33811;DHT22;20119;48.334;16.206;2023-07-31T09:14:26;29.30;95.30
33811;DHT22;20119;48.334;16.206;2023-07-31T09:16:54;29.50;94.70
33811;DHT22;20119;48.334;16.206;2023-07-31T09:19:29;28.80;94.70
33811;DHT22;20119;48.334;16.206;2023-07-31T09:21:56;29.50;94.70
33811;DHT22;20119;48.334;16.206;2023-07-31T09:24:28;28.30;93.10
33811;DHT22;20119;48.334;16.206;2023-07-31T09:26:56;28.70;94.80
33811;DHT22;20119;48.334;16.206;2023-07-31T09:29:24;28.70;94.90
33811;DHT22;20119;48.334;16.206;2023-07-31T09:31:52;28.40;95.90
33811;DHT22;20119;48.334;16.206;2023-07-31T09:34:19;28.80;94.40
33811;DHT22;20119;48.334;16.206;2023-07-31T09:36:48;29.00;95.20
33811;DHT22;20119;48.334;16.206;2023-07-31T09:39:17;29.30;96.10
33811;DHT22;20119;48.334;16.206;2023-07-31T09:41:53;29.10;93.40
33811;DHT22;20119;48.334;16.206;2023-07-31T09:44:20;28.70;94.90
33811;DHT22;20119;48.334;16.206;2023-07-31T09:46:48;28.40;94.20
33811;DHT22;20119;48.334;16.206;2023-07-31T09:49:15;29.00;93.60
33811;DHT22;20119;48.334;16.206;2023-07-31T09:51:43;29.10;95.30
33811;DHT22;20119;48.334;16.206;2023-07-31T09:54:10;29.20;93.30
33811;DHT22;20119;48.334;16.206;2023-07-31T09:56:41;28.70;94.80
33811;DHT22;20119;48.334;16.206;2023-07-31T09:59:11;28.60;94.70
33811;DHT22;20119;48.334;16.206;2023-07-31T10:01:38;26.90;95.10
33811;DHT22;20119;48.334;16.206;2023-07-31T10:04:07;26.50;95.60
33811;DHT22;20119;48.334;16.206;2023-07-31T10:06:36;27.40;95.50
33811;DHT22;20119;48.334;16.206;2023-07-31T10:09:06;27.60;94.80
33811;DHT22;20119;48.334;16.206;2023-07-31T10:11:38;27.50;95.50
33811;DHT22;20119;48.334;16.206;2023-07-31T10:14:05;27.60;95.50
33811;DHT22;20119;48.334;16.206;2023-07-31T10:16:37;27.60;95.80
33811;DHT22;20119;48.334;16.206;2023-07-31T10:19:05;27.60;96.00
33811;DHT22;20119;48.334;16.206;2023-07-31T10:21:34;27.60;96.20
33811;DHT22;20119;48.334;16.206;2023-07-31T10:24:03;27.70;95.80
33811;DHT22;20119;48.334;16.206;2023-07-31T10:26:32;27.90;96.50
33811;DHT22;20119;48.334;16.206;2023-07-31T10:28:59;28.10;96.70
33811;DHT22;20119;48.334;16.206;2023-07-31T10:31:27;28.20;97.40
33811;DHT22;20119;48.334;16.206;2023-07-31T10:33:57;27.60;96.90
33811;DHT22;20119;48.334;16.206;2023-07-31T10:36:24;27.50;95.60
33811;DHT22;20119;48.334;16.206;2023-07-31T10:38:52;27.80;95.60
33811;DHT22;20119;48.334;16.206;2023-07-31T10:41:19;27.90;96.80
33811;DHT22;20119;48.334;16.206;2023-07-31T10:43:46;27.40;94.30
33811;DHT22;20119;48.334;16.206;2023-07-31T10:46:14;27.50;97.70
33811;DHT22;20119;48.334;16.206;2023-07-31T10:48:41;27.60;96.40
33811;DHT22;20119;48.334;16.206;2023-07-31T10:51:11;27.70;97.70
33811;DHT22;20119;48.334;16.206;2023-07-31T10:53:42;27.80;96.60
33811;DHT22;20119;48.334;16.206;2023-07-31T10:56:10;27.80;96.00
33811;DHT22;20119;48.334;16.206;2023-07-31T10:58:38;27.60;95.50
33811;DHT22;20119;48.334;16.206;2023-07-31T11:01:06;27.50;96.60
33811;DHT22;20119;48.334;16.206;2023-07-31T11:03:43;28.00;95.00
33811;DHT22;20119;48.334;16.206;2023-07-31T11:06:13;27.30;95.10
33811;DHT22;20119;48.334;16.206;2023-07-31T11:08:44;27.20;95.80
33811;DHT22;20119;48.334;16.206;2023-07-31T11:11:13;27.20;96.00
33811;DHT22;20119;48.334;16.206;2023-07-31T11:13:42;27.30;96.10
33811;DHT22;20119;48.334;16.206;2023-07-31T11:16:09;27.60;97.90
33811;DHT22;20119;48.334;16.206;2023-07-31T11:18:39;27.50;95.20
33811;DHT22;20119;48.334;16.206;2023-07-31T11:21:06;27.00;95.70
33811;DHT22;20119;48.334;16.206;2023-07-31T11:23:37;27.20;95.80
33811;DHT22;20119;48.334;16.206;2023-07-31T11:26:05;26.90;94.00
33811;DHT22;20119;48.334;16.206;2023-07-31T11:28:33;27.00;98.00
33811;DHT22;20119;48.334;16.206;2023-07-31T11:31:01;27.40;97.40
33811;DHT22;20119;48.334;16.206;2023-07-31T11:33:28;27.60;95.60
33811;DHT22;20119;48.334;16.206;2023-07-31T11:35:58;27.60;96.60
33811;DHT22;20119;48.334;16.206;2023-07-31T11:38:27;27.20;97.30
33811;DHT22;20119;48.334;16.206;2023-07-31T11:41:02;27.50;98.20
33811;DHT22;20119;48.334;16.206;2023-07-31T11:43:31;27.40;97.00
33811;DHT22;20119;48.334;16.206;2023-07-31T11:46:00;27.60;96.00
33811;DHT22;20119;48.334;16.206;2023-07-31T11:48:29;27.40;95.00
33811;DHT22;20119;48.334;16.206;2023-07-31T11:51:02;27.30;97.30
33811;DHT22;20119;48.334;16.206;2023-07-31T11:53:33;27.20;94.40
33811;DHT22;20119;48.334;16.206;2023-07-31T11:56:03;27.10;94.80
33811;DHT22;20119;48.334;16.206;2023-07-31T11:58:34;26.80;97.40
33811;DHT22;20119;48.334;16.206;2023-07-31T12:01:02;26.80;96.40
33811;DHT22;20119;48.334;16.206;2023-07-31T12:03:29;27.00;97.30
33811;DHT22;20119;48.334;16.206;2023-07-31T12:05:57;26.90;97.30
33811;DHT22;20119;48.334;16.206;2023-07-31T12:08:25;27.20;97.20
33811;DHT22;20119;48.334;16.206;2023-07-31T12:10:52;27.40;95.50
33811;DHT22;20119;48.334;16.206;2023-07-31T12:13:22;27.50;95.70
33811;DHT22;20119;48.334;16.206;2023-07-31T12:15:54;27.90;95.00
33811;DHT22;20119;48.334;16.206;2023-07-31T12:18:22;27.60;95.50
33811;DHT22;20119;48.334;16.206;2023-07-31T12:20:53;27.70;94.90
33811;DHT22;20119;48.334;16.206;2023-07-31T12:23:22;27.80;94.80
33811;DHT22;20119;48.334;16.206;2023-07-31T12:26:00;28.00;95.10
33811;DHT22;20119;48.334;16.206;2023-07-31T12:28:28;27.90;94.70
33811;DHT22;20119;48.334;16.206;2023-07-31T12:30:57;27.90;96.30
33811;DHT22;20119;48.334;16.206;2023-07-31T12:33:30;28.30;95.50
33811;DHT22;20119;48.334;16.206;2023-07-31T12:35:58;28.00;95.30
33811;DHT22;20119;48.334;16.206;2023-07-31T12:38:25;27.80;96.50
33811;DHT22;20119;48.334;16.206;2023-07-31T12:40:52;27.80;97.00
33811;DHT22;20119;48.334;16.206;2023-07-31T12:43:21;27.70;95.60
33811;DHT22;20119;48.334;16.206;2023-07-31T12:45:50;27.90;95.70
33811;DHT22;20119;48.334;16.206;2023-07-31T12:48:18;28.00;98.10
33811;DHT22;20119;48.334;16.206;2023-07-31T12:50:45;28.00;96.20
33811;DHT22;20119;48.334;16.206;2023-07-31T12:53:12;27.90;94.80
33811;DHT22;20119;48.334;16.206;2023-07-31T12:55:39;28.10;95.80
33811;DHT22;20119;48.334;16.206;2023-07-31T12:58:06;27.90;95.10
33811;DHT22;20119;48.334;16.206;2023-07-31T13:00:32;27.80;95.70
33811;DHT22;20119;48.334;16.206;2023-07-31T13:03:01;28.00;94.80
33811;DHT22;20119;48.334;16.206;2023-07-31T13:05:28;28.20;96.50
33811;DHT22;20119;48.334;16.206;2023-07-31T13:07:55;28.20;95.70
33811;DHT22;20119;48.334;16.206;2023-07-31T13:10:23;28.50;95.60
33811;DHT22;20119;48.334;16.206;2023-07-31T13:12:52;28.20;95.50
33811;DHT22;20119;48.334;16.206;2023-07-31T13:15:19;28.10;95.80
33811;DHT22;20119;48.334;16.206;2023-07-31T13:17:46;28.50;98.20
33811;DHT22;20119;48.334;16.206;2023-07-31T13:20:14;28.60;96.70
33811;DHT22;20119;48.334;16.206;2023-07-31T13:22:41;28.90;96.60
33811;DHT22;20119;48.334;16.206;2023-07-31T13:25:09;28.90;94.60
33811;DHT22;20119;48.334;16.206;2023-07-31T13:27:39;29.00;95.20
33811;DHT22;20119;48.334;16.206;2023-07-31T13:30:07;29.20;94.00
33811;DHT22;20119;48.334;16.206;2023-07-31T13:32:34;28.80;95.30
33811;DHT22;20119;48.334;16.206;2023-07-31T13:35:04;28.90;92.80
33811;DHT22;20119;48.334;16.206;2023-07-31T13:37:33;28.60;94.00
33811;DHT22;20119;48.334;16.206;2023-07-31T13:40:00;28.70;94.60
33811;DHT22;20119;48.334;16.206;2023-07-31T13:42:27;28.50;95.40
33811;DHT22;20119;48.334;16.206;2023-07-31T13:44:54;28.40;95.10
33811;DHT22;20119;48.334;16.206;2023-07-31T13:47:21;28.60;95.00
33811;DHT22;20119;48.334;16.206;2023-07-31T13:49:48;29.10;94.10
33811;DHT22;20119;48.334;16.206;2023-07-31T13:52:15;29.10;95.40
33811;DHT22;20119;48.334;16.206;2023-07-31T13:54:43;29.00;94.70
33811;DHT22;20119;48.334;16.206;2023-07-31T13:57:10;28.80;94.80
33811;DHT22;20119;48.334;16.206;2023-07-31T13:59:37;28.50;95.20
33811;DHT22;20119;48.334;16.206;2023-07-31T14:02:04;28.70;95.30
33811;DHT22;20119;48.334;16.206;2023-07-31T14:04:31;28.20;94.90
33811;DHT22;20119;48.334;16.206;2023-07-31T14:06:58;28.20;94.80
33811;DHT22;20119;48.334;16.206;2023-07-31T14:09:25;28.20;95.20
33811;DHT22;20119;48.334;16.206;2023-07-31T14:11:55;27.90;94.90
33811;DHT22;20119;48.334;16.206;2023-07-31T14:14:22;28.10;94.60
33811;DHT22;20119;48.334;16.206;2023-07-31T14:16:49;27.90;95.30
33811;DHT22;20119;48.334;16.206;2023-07-31T14:19:16;28.00;95.50
33811;DHT22;20119;48.334;16.206;2023-07-31T14:21:43;28.10;93.90
33811;DHT22;20119;48.334;16.206;2023-07-31T14:24:10;28.30;94.50
33811;DHT22;20119;48.334;16.206;2023-07-31T14:26:37;28.60;94.00
33811;DHT22;20119;48.334;16.206;2023-07-31T14:29:05;28.60;94.60
33811;DHT22;20119;48.334;16.206;2023-07-31T14:31:32;28.90;94.90
33811;DHT22;20119;48.334;16.206;2023-07-31T14:33:59;29.20;94.10
33811;DHT22;20119;48.334;16.206;2023-07-31T14:36:26;28.60;93.70
33811;DHT22;20119;48.334;16.206;2023-07-31T14:38:53;28.50;94.60
33811;DHT22;20119;48.334;16.206;2023-07-31T14:41:20;28.70;93.10
33811;DHT22;20119;48.334;16.206;2023-07-31T14:43:47;28.80;92.60
33811;DHT22;20119;48.334;16.206;2023-07-31T14:46:15;28.50;93.00
33811;DHT22;20119;48.334;16.206;2023-07-31T14:48:42;28.60;92.90
33811;DHT22;20119;48.334;16.206;2023-07-31T14:51:09;28.70;93.10
33811;DHT22;20119;48.334;16.206;2023-07-31T14:53:36;28.90;92.50
33811;DHT22;20119;48.334;16.206;2023-07-31T14:56:03;28.60;92.10
33811;DHT22;20119;48.334;16.206;2023-07-31T14:58:30;28.40;93.30
33811;DHT22;20119;48.334;16.206;2023-07-31T15:00:57;28.50;93.40
33811;DHT22;20119;48.334;16.206;2023-07-31T15:03:25;28.50;92.00
33811;DHT22;20119;48.334;16.206;2023-07-31T15:05:52;28.20;92.80
33811;DHT22;20119;48.334;16.206;2023-07-31T15:08:19;28.10;93.30
33811;DHT22;20119;48.334;16.206;2023-07-31T15:10:46;28.20;93.60
33811;DHT22;20119;48.334;16.206;2023-07-31T15:13:13;28.20;94.60
33811;DHT22;20119;48.334;16.206;2023-07-31T15:15:39;28.10;93.80
33811;DHT22;20119;48.334;16.206;2023-07-31T15:18:06;27.80;93.30
33811;DHT22;20119;48.334;16.206;2023-07-31T15:20:35;27.80;93.70
33811;DHT22;20119;48.334;16.206;2023-07-31T15:23:02;27.80;93.80
33811;DHT22;20119;48.334;16.206;2023-07-31T15:25:29;27.70;93.90
33811;DHT22;20119;48.334;16.206;2023-07-31T15:27:56;27.70;94.30
33811;DHT22;20119;48.334;16.206;2023-07-31T15:30:24;27.60;93.60
33811;DHT22;20119;48.334;16.206;2023-07-31T15:32:51;27.40;93.40
33811;DHT22;20119;48.334;16.206;2023-07-31T15:35:20;27.50;93.70
33811;DHT22;20119;48.334;16.206;2023-07-31T15:37:49;27.60;95.10
33811;DHT22;20119;48.334;16.206;2023-07-31T15:40:16;27.40;93.80
33811;DHT22;20119;48.334;16.206;2023-07-31T15:42:43;27.30;95.00
33811;DHT22;20119;48.334;16.206;2023-07-31T15:45:11;27.30;94.90
33811;DHT22;20119;48.334;16.206;2023-07-31T15:47:38;27.30;94.40
33811;DHT22;20119;48.334;16.206;2023-07-31T15:50:06;27.30;95.40
33811;DHT22;20119;48.334;16.206;2023-07-31T15:52:34;27.30;95.00
33811;DHT22;20119;48.334;16.206;2023-07-31T15:55:02;27.30;95.70
33811;DHT22;20119;48.334;16.206;2023-07-31T15:57:32;27.30;94.90
33811;DHT22;20119;48.334;16.206;2023-07-31T15:59:59;27.50;94.70
33811;DHT22;20119;48.334;16.206;2023-07-31T16:02:26;27.40;93.20
33811;DHT22;20119;48.334;16.206;2023-07-31T16:04:53;27.30;93.60
33811;DHT22;20119;48.334;16.206;2023-07-31T16:07:20;27.30;95.00
33811;DHT22;20119;48.334;16.206;2023-07-31T16:09:49;27.30;93.80
33811;DHT22;20119;48.334;16.206;2023-07-31T16:12:17;27.20;93.00
33811;DHT22;20119;48.334;16.206;2023-07-31T16:14:44;27.20;93.40
33811;DHT22;20119;48.334;16.206;2023-07-31T16:17:14;27.20;92.10
33811;DHT22;20119;48.334;16.206;2023-07-31T16:19:41;27.00;93.60
33811;DHT22;20119;48.334;16.206;2023-07-31T16:22:08;27.00;92.40
33811;DHT22;20119;48.334;16.206;2023-07-31T16:24:35;27.00;92.70
33811;DHT22;20119;48.334;16.206;2023-07-31T16:27:02;27.00;92.80
33811;DHT22;20119;48.334;16.206;2023-07-31T16:29:31;26.90;92.50
33811;DHT22;20119;48.334;16.206;2023-07-31T16:31:58;26.70;94.30
33811;DHT22;20119;48.334;16.206;2023-07-31T16:34:25;26.70;93.20
33811;DHT22;20119;48.334;16.206;2023-07-31T16:36:52;26.60;93.00
33811;DHT22;20119;48.334;16.206;2023-07-31T16:39:20;26.60;93.50
33811;DHT22;20119;48.334;16.206;2023-07-31T16:41:47;26.60;93.00
33811;DHT22;20119;48.334;16.206;2023-07-31T16:44:14;26.50;94.20
33811;DHT22;20119;48.334;16.206;2023-07-31T16:46:42;26.50;93.70
33811;DHT22;20119;48.334;16.206;2023-07-31T16:49:09;26.40;93.70
33811;DHT22;20119;48.334;16.206;2023-07-31T16:51:36;26.40;93.10
33811;DHT22;20119;48.334;16.206;2023-07-31T16:54:03;26.30;93.80
33811;DHT22;20119;48.334;16.206;2023-07-31T16:56:30;26.20;94.30
33811;DHT22;20119;48.334;16.206;2023-07-31T16:58:57;26.00;93.90
33811;DHT22;20119;48.334;16.206;2023-07-31T17:01:24;25.90;94.30
33811;DHT22;20119;48.334;16.206;2023-07-31T17:03:57;25.90;95.10
33811;DHT22;20119;48.334;16.206;2023-07-31T17:06:25;25.90;95.40
33811;DHT22;20119;48.334;16.206;2023-07-31T17:08:53;25.80;94.60
33811;DHT22;20119;48.334;16.206;2023-07-31T17:11:20;25.80;95.20
33811;DHT22;20119;48.334;16.206;2023-07-31T17:13:48;25.70;95.20
33811;DHT22;20119;48.334;16.206;2023-07-31T17:16:16;25.60;94.90
33811;DHT22;20119;48.334;16.206;2023-07-31T17:18:43;25.60;95.30
33811;DHT22;20119;48.334;16.206;2023-07-31T17:21:12;25.40;95.00
33811;DHT22;20119;48.334;16.206;2023-07-31T17:23:39;25.20;95.30
33811;DHT22;20119;48.334;16.206;2023-07-31T17:26:06;25.10;95.60
33811;DHT22;20119;48.334;16.206;2023-07-31T17:28:37;25.20;96.10
33811;DHT22;20119;48.334;16.206;2023-07-31T17:31:04;25.10;96.50
33811;DHT22;20119;48.334;16.206;2023-07-31T17:33:31;24.80;97.20
33811;DHT22;20119;48.334;16.206;2023-07-31T17:36:02;24.70;97.30
33811;DHT22;20119;48.334;16.206;2023-07-31T17:38:31;24.60;96.00
33811;DHT22;20119;48.334;16.206;2023-07-31T17:40:58;24.50;96.20
33811;DHT22;20119;48.334;16.206;2023-07-31T17:43:25;24.40;96.70
33811;DHT22;20119;48.334;16.206;2023-07-31T17:45:52;24.40;96.90
33811;DHT22;20119;48.334;16.206;2023-07-31T17:48:19;24.30;97.10
33811;DHT22;20119;48.334;16.206;2023-07-31T17:50:49;24.30;97.60
33811;DHT22;20119;48.334;16.206;2023-07-31T17:53:17;24.10;97.80
33811;DHT22;20119;48.334;16.206;2023-07-31T17:55:48;24.00;97.90
33811;DHT22;20119;48.334;16.206;2023-07-31T17:58:15;23.90;98.00
33811;DHT22;20119;48.334;16.206;2023-07-31T18:00:42;23.60;98.30
33811;DHT22;20119;48.334;16.206;2023-07-31T18:03:09;23.50;99.10
33811;DHT22;20119;48.334;16.206;2023-07-31T18:05:38;23.30;99.90
33811;DHT22;20119;48.334;16.206;2023-07-31T18:08:05;23.10;99.90
33811;DHT22;20119;48.334;16.206;2023-07-31T18:10:32;22.80;99.90
33811;DHT22;20119;48.334;16.206;2023-07-31T18:13:01;22.60;99.90
33811;DHT22;20119;48.334;16.206;2023-07-31T18:15:28;22.50;99.90
33811;DHT22;20119;48.334;16.206;2023-07-31T18:17:55;22.40;99.90
33811;DHT22;20119;48.334;16.206;2023-07-31T18:20:22;22.30;99.90
33811;DHT22;20119;48.334;16.206;2023-07-31T18:22:49;22.30;99.90
33811;DHT22;20119;48.334;16.206;2023-07-31T18:25:17;22.20;99.90
33811;DHT22;20119;48.334;16.206;2023-07-31T18:27:44;22.00;99.90
33811;DHT22;20119;48.334;16.206;2023-07-31T18:30:20;22.00;99.90
33811;DHT22;20119;48.334;16.206;2023-07-31T18:38:22;21.60;99.90
33811;DHT22;20119;48.334;16.206;2023-07-31T18:40:52;21.40;99.90
33811;DHT22;20119;48.334;16.206;2023-07-31T18:43:19;21.20;99.90
33811;DHT22;20119;48.334;16.206;2023-07-31T18:45:50;21.10;99.90
33811;DHT22;20119;48.334;16.206;2023-07-31T18:48:19;21.00;99.90
33811;DHT22;20119;48.334;16.206;2023-07-31T18:53:22;20.80;99.90
33811;DHT22;20119;48.334;16.206;2023-07-31T19:03:59;20.50;99.90
33811;DHT22;20119;48.334;16.206;2023-07-31T19:06:53;20.40;99.90
33811;DHT22;20119;48.334;16.206;2023-07-31T19:18:30;20.20;99.90
33811;DHT22;20119;48.334;16.206;2023-07-31T20:10:18;20.20;99.90
33811;DHT22;20119;48.334;16.206;2023-07-31T20:52:38;20.20;99.90
33811;DHT22;20119;48.334;16.206;2023-07-31T21:45:02;19.80;99.90
33811;DHT22;20119;48.334;16.206;2023-07-31T21:55:31;19.70;99.90
